createdAt,value
2023-05-09T00:00:11.865Z,58.86
2023-05-09T00:02:41.627Z,59.13
2023-05-09T00:05:08.663Z,58.82
2023-05-09T00:07:36.503Z,59.02
2023-05-09T00:10:03.733Z,58.79
2023-05-09T00:12:56.856Z,59.52
2023-05-09T00:15:23.613Z,59.39
2023-05-09T00:17:52.647Z,59.03
2023-05-09T00:20:20.446Z,59.76
2023-05-09T00:22:47.213Z,60.18
2023-05-09T00:25:15.927Z,60.06
2023-05-09T00:27:43.143Z,60.38
2023-05-09T00:30:10.654Z,60.50
2023-05-09T00:32:37.897Z,60.50
2023-05-09T00:35:05.235Z,60.44
2023-05-09T00:37:32.127Z,60.71
2023-05-09T00:39:59.950Z,60.78
2023-05-09T00:42:27.123Z,60.88
2023-05-09T00:44:54.887Z,60.84
2023-05-09T00:47:24.167Z,61.30
2023-05-09T00:49:51.343Z,60.62
2023-05-09T00:52:18.336Z,61.16
2023-05-09T00:54:45.865Z,61.71
2023-05-09T00:57:12.851Z,62.13
2023-05-09T00:59:42.100Z,62.41
2023-05-09T01:02:08.838Z,62.54
2023-05-09T01:04:36.016Z,62.95
2023-05-09T01:07:10.315Z,62.76
2023-05-09T01:09:55.907Z,62.87
2023-05-09T01:12:52.068Z,62.75
2023-05-09T01:15:30.078Z,62.53
2023-05-09T01:18:21.420Z,63.04
2023-05-09T01:21:06.069Z,63.38
2023-05-09T01:23:36.302Z,63.79
2023-05-09T01:26:29.273Z,64.49
2023-05-09T01:29:24.215Z,64.04
2023-05-09T01:31:55.844Z,64.16
2023-05-09T01:34:27.106Z,64.10
2023-05-09T01:37:00.941Z,64.42
2023-05-09T01:39:34.632Z,64.34
2023-05-09T01:42:04.543Z,64.34
2023-05-09T01:44:37.350Z,64.74
2023-05-09T01:47:06.876Z,64.90
2023-05-09T01:49:37.915Z,64.85
2023-05-09T01:52:08.974Z,64.42
2023-05-09T01:54:37.154Z,64.89
2023-05-09T01:57:06.485Z,64.69
2023-05-09T01:59:35.085Z,64.75
2023-05-09T02:02:04.692Z,64.95
2023-05-09T02:04:35.925Z,65.64
2023-05-09T02:07:29.916Z,66.07
2023-05-09T02:10:00.885Z,66.44
2023-05-09T02:12:28.781Z,65.92
2023-05-09T02:14:57.052Z,66.22
2023-05-09T02:17:23.992Z,66.88
2023-05-09T02:19:50.838Z,66.70
2023-05-09T02:22:18.990Z,67.32
2023-05-09T02:24:46.013Z,67.31
2023-05-09T02:27:15.749Z,67.29
2023-05-09T02:29:51.035Z,67.76
2023-05-09T02:32:23.603Z,67.62
2023-05-09T02:34:53.945Z,67.71
2023-05-09T02:37:25.985Z,67.93
2023-05-09T02:39:52.807Z,68.14
2023-05-09T02:42:23.275Z,67.72
2023-05-09T02:44:50.877Z,67.88
2023-05-09T02:47:18.236Z,68.48
2023-05-09T02:49:45.262Z,68.32
2023-05-09T02:52:12.817Z,68.38
2023-05-09T02:54:39.930Z,68.27
2023-05-09T02:57:32.078Z,68.50
2023-05-09T03:00:00.450Z,68.43
2023-05-09T03:02:27.948Z,68.36
2023-05-09T03:04:57.924Z,68.41
2023-05-09T03:07:24.850Z,68.62
2023-05-09T03:09:51.998Z,68.35
2023-05-09T03:12:18.945Z,68.32
2023-05-09T03:14:45.759Z,68.44
2023-05-09T03:17:13.967Z,68.43
2023-05-09T03:19:40.767Z,68.02
2023-05-09T03:22:08.634Z,68.05
2023-05-09T03:24:43.128Z,67.90
2023-05-09T03:27:10.002Z,67.89
2023-05-09T03:29:36.753Z,68.09
2023-05-09T03:32:05.598Z,67.56
2023-05-09T03:34:32.371Z,67.90
2023-05-09T03:37:00.440Z,67.80
2023-05-09T03:42:20.491Z,68.20
2023-05-09T03:44:50.793Z,68.23
2023-05-09T03:47:23.627Z,68.39
2023-05-09T03:49:50.606Z,68.77
2023-05-09T03:55:18.085Z,68.93
2023-05-09T03:57:49.594Z,69.28
2023-05-09T04:00:17.495Z,69.08
2023-05-09T04:02:58.645Z,68.86
2023-05-09T04:05:35.473Z,68.53
2023-05-09T04:08:04.809Z,69.01
2023-05-09T04:10:32.463Z,68.85
2023-05-09T04:12:59.377Z,69.36
2023-05-09T04:15:26.402Z,69.48
2023-05-09T04:17:53.994Z,68.94
2023-05-09T04:20:21.531Z,69.54
2023-05-09T04:22:48.284Z,69.16
2023-05-09T04:25:16.877Z,69.31
2023-05-09T04:27:45.054Z,68.76
2023-05-09T04:30:12.465Z,68.94
2023-05-09T04:32:39.651Z,69.04
2023-05-09T04:35:07.666Z,69.21
2023-05-09T04:37:39.723Z,69.51
2023-05-09T04:40:07.776Z,69.60
2023-05-09T04:42:40.759Z,69.17
2023-05-09T04:45:08.253Z,69.35
2023-05-09T04:47:35.987Z,69.23
2023-05-09T04:50:03.227Z,69.34
2023-05-09T04:52:30.142Z,70.38
2023-05-09T04:54:57.564Z,69.90
2023-05-09T04:57:27.496Z,69.58
2023-05-09T04:59:57.122Z,69.23
2023-05-09T05:02:24.129Z,69.46
2023-05-09T05:04:56.080Z,69.23
2023-05-09T05:07:27.584Z,69.24
2023-05-09T05:09:54.435Z,69.18
2023-05-09T05:12:21.273Z,68.81
2023-05-09T05:14:48.095Z,69.22
2023-05-09T05:17:19.396Z,69.01
2023-05-09T05:19:46.825Z,68.79
2023-05-09T05:22:14.566Z,68.51
2023-05-09T05:24:43.949Z,68.81
2023-05-09T05:27:10.821Z,68.79
2023-05-09T05:29:37.797Z,68.75
2023-05-09T05:32:04.832Z,68.53
2023-05-09T05:34:31.774Z,68.70
2023-05-09T05:36:58.684Z,68.45
2023-05-09T05:39:25.760Z,68.93
2023-05-09T05:41:53.453Z,68.36
2023-05-09T05:44:20.266Z,68.59
2023-05-09T05:46:47.464Z,68.46
2023-05-09T05:49:14.566Z,68.64
2023-05-09T05:51:41.348Z,68.58
2023-05-09T05:54:09.401Z,68.36
2023-05-09T05:56:37.014Z,66.67
2023-05-09T05:59:04.058Z,66.01
2023-05-09T06:01:30.919Z,66.03
2023-05-09T06:03:58.730Z,65.47
2023-05-09T06:06:28.735Z,65.18
2023-05-09T06:08:55.919Z,65.20
2023-05-09T06:11:23.675Z,65.40
2023-05-09T06:13:50.461Z,64.83
2023-05-09T06:16:20.110Z,64.45
2023-05-09T06:18:50.211Z,64.67
2023-05-09T06:21:17.200Z,63.93
2023-05-09T06:24:01.433Z,63.57
2023-05-09T06:26:32.573Z,63.16
2023-05-09T06:28:59.392Z,63.40
2023-05-09T06:31:26.274Z,62.99
2023-05-09T06:33:53.856Z,62.50
2023-05-09T06:36:20.641Z,62.88
2023-05-09T06:38:47.445Z,62.91
2023-05-09T06:41:14.240Z,62.13
2023-05-09T06:43:41.097Z,62.22
2023-05-09T06:46:08.481Z,62.39
2023-05-09T06:48:35.282Z,62.11
2023-05-09T06:51:02.109Z,61.99
2023-05-09T06:53:28.869Z,61.42
2023-05-09T06:55:55.938Z,61.38
2023-05-09T06:58:23.346Z,61.51
2023-05-09T07:00:50.134Z,60.87
2023-05-09T07:03:17.262Z,60.79
2023-05-09T07:05:44.188Z,60.72
2023-05-09T07:08:10.960Z,60.65
2023-05-09T07:10:38.396Z,60.69
2023-05-09T07:13:05.603Z,60.88
2023-05-09T07:15:41.501Z,60.35
2023-05-09T07:18:09.758Z,59.81
2023-05-09T07:20:36.906Z,59.89
2023-05-09T07:23:04.719Z,59.91
2023-05-09T07:25:31.717Z,59.73
2023-05-09T07:27:58.673Z,59.33
2023-05-09T07:30:25.522Z,59.05
2023-05-09T07:32:52.577Z,59.13
2023-05-09T07:35:20.345Z,58.68
2023-05-09T07:37:47.191Z,58.10
2023-05-09T07:40:14.787Z,58.68
2023-05-09T07:42:42.118Z,57.86
2023-05-09T07:45:09.234Z,57.53
2023-05-09T07:47:36.030Z,57.54
2023-05-09T07:50:02.811Z,56.81
2023-05-09T07:52:29.722Z,56.63
2023-05-09T07:54:56.441Z,56.95
2023-05-09T07:57:23.282Z,57.19
2023-05-09T07:59:50.022Z,55.37
2023-05-09T08:02:16.956Z,55.38
2023-05-09T08:04:43.762Z,54.72
2023-05-09T08:07:10.612Z,55.64
2023-05-09T08:09:37.346Z,54.98
2023-05-09T08:12:04.336Z,54.49
2023-05-09T08:14:31.150Z,54.96
2023-05-09T08:16:57.958Z,54.94
2023-05-09T08:19:24.869Z,54.63
2023-05-09T08:21:52.618Z,54.34
2023-05-09T08:24:19.417Z,54.15
2023-05-09T08:26:46.197Z,53.67
2023-05-09T08:29:13.052Z,53.95
2023-05-09T08:31:39.850Z,53.26
2023-05-09T08:34:06.832Z,53.46
2023-05-09T08:36:33.797Z,53.06
2023-05-09T08:39:00.751Z,53.97
2023-05-09T08:41:29.239Z,54.27
2023-05-09T08:43:56.259Z,53.98
2023-05-09T08:46:29.844Z,53.34
2023-05-09T08:48:58.085Z,53.11
2023-05-09T08:51:25.246Z,53.06
2023-05-09T08:53:52.210Z,53.18
2023-05-09T08:56:19.359Z,53.35
2023-05-09T08:58:46.493Z,53.10
2023-05-09T09:01:14.431Z,53.60
2023-05-09T09:03:42.436Z,52.91
2023-05-09T09:06:09.903Z,52.56
2023-05-09T09:08:37.327Z,52.82
2023-05-09T09:11:04.488Z,53.56
2023-05-09T09:13:32.684Z,52.92
2023-05-09T09:16:01.509Z,52.69
2023-05-09T09:18:30.483Z,52.81
2023-05-09T09:21:02.967Z,53.34
2023-05-09T09:23:31.776Z,53.82
2023-05-09T09:26:02.678Z,52.93
2023-05-09T09:28:29.501Z,52.34
2023-05-09T09:30:56.993Z,52.46
2023-05-09T09:33:25.804Z,52.30
2023-05-09T09:35:54.365Z,53.05
2023-05-09T09:38:23.038Z,53.09
2023-05-09T09:40:53.874Z,52.59
2023-05-09T09:43:20.749Z,53.49
2023-05-09T09:45:50.791Z,53.47
2023-05-09T09:48:17.596Z,52.36
2023-05-09T09:50:47.070Z,51.97
2023-05-09T09:53:13.867Z,52.06
2023-05-09T09:55:52.106Z,52.83
2023-05-09T09:58:20.685Z,52.12
2023-05-09T10:00:48.113Z,51.83
2023-05-09T10:03:16.378Z,52.84
2023-05-09T10:05:43.307Z,51.55
2023-05-09T10:08:10.133Z,52.10
2023-05-09T10:10:37.961Z,52.03
2023-05-09T10:13:11.044Z,52.21
2023-05-09T10:15:52.245Z,52.59
2023-05-09T10:18:25.690Z,51.71
2023-05-09T10:20:53.914Z,51.93
2023-05-09T10:23:21.459Z,51.48
2023-05-09T10:25:54.796Z,51.60
2023-05-09T10:28:27.822Z,52.01
2023-05-09T10:31:07.875Z,51.31
2023-05-09T10:33:42.754Z,51.39
2023-05-09T10:36:10.168Z,51.03
2023-05-09T10:38:37.900Z,50.39
2023-05-09T10:41:05.139Z,50.88
2023-05-09T10:43:35.480Z,51.68
2023-05-09T10:46:05.436Z,51.54
2023-05-09T10:48:37.256Z,50.72
2023-05-09T10:51:04.916Z,50.37
2023-05-09T10:53:48.832Z,50.73
2023-05-09T10:56:34.684Z,50.61
2023-05-09T10:59:01.885Z,50.59
2023-05-09T11:01:33.467Z,49.86
2023-05-09T11:04:01.710Z,50.18
2023-05-09T11:06:41.651Z,51.28
2023-05-09T11:09:29.697Z,50.79
2023-05-09T11:11:58.526Z,51.11
2023-05-09T11:14:31.997Z,51.04
2023-05-09T11:17:24.941Z,50.50
2023-05-09T11:19:51.826Z,50.78
2023-05-09T11:22:30.643Z,50.76
2023-05-09T11:25:13.325Z,51.21
2023-05-09T11:27:49.297Z,50.79
2023-05-09T11:30:20.199Z,50.79
2023-05-09T11:32:56.452Z,49.29
2023-05-09T11:35:24.534Z,50.50
2023-05-09T11:38:12.437Z,50.70
2023-05-09T11:40:40.002Z,50.78
2023-05-09T11:43:07.718Z,50.31
2023-05-09T11:45:35.070Z,49.95
2023-05-09T11:48:01.844Z,49.88
2023-05-09T11:50:28.848Z,50.06
2023-05-09T11:52:55.918Z,50.35
2023-05-09T11:55:23.185Z,50.68
2023-05-09T11:57:54.058Z,50.41
2023-05-09T12:00:25.206Z,50.93
2023-05-09T12:02:53.225Z,49.97
2023-05-09T12:05:21.985Z,50.24
2023-05-09T12:07:49.009Z,49.16
2023-05-09T12:10:21.076Z,49.69
2023-05-09T12:12:53.243Z,49.74
2023-05-09T12:15:20.483Z,48.61
2023-05-09T12:17:50.435Z,48.85
2023-05-09T12:20:18.826Z,49.21
2023-05-09T12:22:52.796Z,49.34
2023-05-09T12:25:19.781Z,49.38
2023-05-09T12:27:46.510Z,48.58
2023-05-09T12:30:13.956Z,48.52
2023-05-09T12:32:41.024Z,49.02
2023-05-09T12:35:09.111Z,48.60
2023-05-09T12:37:36.387Z,48.68
2023-05-09T12:40:11.897Z,49.36
2023-05-09T12:42:39.063Z,48.28
2023-05-09T12:45:08.691Z,48.29
2023-05-09T12:47:35.648Z,48.37
2023-05-09T12:50:04.626Z,47.82
2023-05-09T12:52:54.605Z,49.11
2023-05-09T12:55:29.225Z,48.45
2023-05-09T12:58:02.919Z,48.16
2023-05-09T13:00:45.083Z,48.42
2023-05-09T13:03:26.437Z,48.83
2023-05-09T13:05:56.408Z,48.13
2023-05-09T13:08:23.532Z,47.75
2023-05-09T13:10:52.268Z,48.73
2023-05-09T13:13:25.303Z,48.83
2023-05-09T13:15:52.625Z,48.94
2023-05-09T13:18:19.662Z,48.20
2023-05-09T13:20:47.149Z,48.00
2023-05-09T13:23:14.032Z,47.60
2023-05-09T13:25:40.936Z,46.47
2023-05-09T13:28:07.705Z,47.60
2023-05-09T13:30:37.350Z,47.34
2023-05-09T13:33:16.709Z,46.63
2023-05-09T13:35:51.433Z,47.45
2023-05-09T13:38:18.186Z,47.26
2023-05-09T13:40:45.004Z,46.16
2023-05-09T13:43:12.072Z,47.17
2023-05-09T13:45:38.942Z,47.50
2023-05-09T13:48:06.055Z,46.80
2023-05-09T13:50:32.983Z,46.93
2023-05-09T13:53:00.008Z,46.40
2023-05-09T13:55:26.894Z,45.56
2023-05-09T13:57:53.764Z,46.04
2023-05-09T14:00:21.056Z,45.89
2023-05-09T14:02:48.330Z,46.63
2023-05-09T14:05:15.348Z,45.88
2023-05-09T14:07:42.300Z,46.36
2023-05-09T14:10:11.834Z,46.70
2023-05-09T14:12:40.303Z,46.75
2023-05-09T14:15:08.488Z,46.81
2023-05-09T14:17:35.480Z,46.24
2023-05-09T14:20:02.577Z,46.83
2023-05-09T14:22:29.427Z,46.06
2023-05-09T14:24:57.005Z,46.13
2023-05-09T14:27:23.868Z,46.57
2023-05-09T14:29:50.912Z,46.71
2023-05-09T14:32:17.835Z,46.33
2023-05-09T14:34:44.743Z,46.04
2023-05-09T14:37:11.656Z,45.21
2023-05-09T14:39:38.566Z,45.32
2023-05-09T14:42:05.657Z,45.58
2023-05-09T14:44:32.592Z,46.30
2023-05-09T14:46:59.490Z,46.37
2023-05-09T14:49:26.427Z,45.34
2023-05-09T14:51:53.247Z,45.28
2023-05-09T14:54:19.963Z,45.05
2023-05-09T14:56:47.606Z,44.99
2023-05-09T14:59:14.724Z,44.64
2023-05-09T15:01:41.528Z,44.56
2023-05-09T15:04:08.422Z,44.49
2023-05-09T15:06:35.601Z,44.92
2023-05-09T15:09:02.293Z,45.31
2023-05-09T15:11:36.359Z,45.30
2023-05-09T15:14:10.372Z,45.84
2023-05-09T15:16:38.093Z,44.63
2023-05-09T15:19:05.800Z,44.64
2023-05-09T15:21:32.704Z,44.68
2023-05-09T15:23:59.811Z,44.77
2023-05-09T15:26:27.412Z,44.71
2023-05-09T15:28:54.584Z,44.96
2023-05-09T15:31:21.594Z,44.68
2023-05-09T15:33:48.959Z,44.90
2023-05-09T15:36:15.834Z,45.70
2023-05-09T15:38:42.669Z,44.54
2023-05-09T15:41:09.600Z,44.70
2023-05-09T15:43:37.061Z,44.33
2023-05-09T15:46:04.168Z,44.89
2023-05-09T15:48:31.139Z,44.96
2023-05-09T15:50:57.900Z,44.79
2023-05-09T15:53:24.904Z,44.61
2023-05-09T15:55:51.794Z,44.76
2023-05-09T15:58:18.740Z,44.65
2023-05-09T16:00:45.542Z,44.56
2023-05-09T16:03:12.485Z,44.65
2023-05-09T16:05:39.281Z,44.26
2023-05-09T16:08:06.159Z,44.78
2023-05-09T16:10:33.435Z,44.60
2023-05-09T16:13:00.390Z,44.86
2023-05-09T16:15:27.234Z,44.97
2023-05-09T16:17:54.302Z,44.03
2023-05-09T16:20:21.139Z,40.38
2023-05-09T16:22:48.378Z,34.77
2023-05-09T16:25:16.783Z,30.45
2023-05-09T16:27:44.675Z,27.12
2023-05-09T16:30:12.034Z,25.47
2023-05-09T16:32:38.915Z,23.92
2023-05-09T16:35:06.448Z,23.24
2023-05-09T16:37:35.443Z,23.11
2023-05-09T16:40:03.137Z,24.36
2023-05-09T16:42:30.099Z,26.73
2023-05-09T16:44:57.533Z,29.46
2023-05-09T16:47:24.415Z,31.45
2023-05-09T16:49:51.188Z,33.52
2023-05-09T16:52:18.022Z,34.77
2023-05-09T16:54:44.768Z,36.04
2023-05-09T16:57:11.568Z,36.84
2023-05-09T16:59:38.313Z,37.43
2023-05-09T17:02:05.136Z,38.32
2023-05-09T17:04:32.062Z,38.90
2023-05-09T17:06:59.036Z,39.29
2023-05-09T17:09:25.974Z,40.09
2023-05-09T17:11:52.742Z,40.37
2023-05-09T17:14:19.617Z,40.81
2023-05-09T17:16:46.380Z,41.41
2023-05-09T17:19:13.845Z,41.84
2023-05-09T17:21:40.646Z,41.93
2023-05-09T17:24:09.174Z,42.08
2023-05-09T17:26:36.035Z,41.89
2023-05-09T17:29:02.925Z,42.29
2023-05-09T17:31:29.707Z,42.31
2023-05-09T17:33:56.607Z,42.59
2023-05-09T17:36:23.630Z,42.63
2023-05-09T17:38:50.492Z,42.47
2023-05-09T17:41:17.289Z,42.56
2023-05-09T17:43:44.026Z,42.67
2023-05-09T17:46:10.781Z,42.89
2023-05-09T17:48:37.655Z,43.12
2023-05-09T17:51:04.368Z,43.15
2023-05-09T17:53:31.167Z,43.44
2023-05-09T17:55:58.394Z,43.69
2023-05-09T17:58:25.335Z,43.77
2023-05-09T18:00:54.977Z,44.33
2023-05-09T18:03:21.913Z,44.40
2023-05-09T18:05:48.960Z,44.48
2023-05-09T18:08:17.148Z,44.60
2023-05-09T18:10:44.069Z,44.99
2023-05-09T18:13:11.040Z,45.34
2023-05-09T18:15:38.106Z,44.98
2023-05-09T18:18:06.726Z,45.66
2023-05-09T18:20:33.836Z,45.25
2023-05-09T18:23:00.725Z,45.22
2023-05-09T18:25:27.532Z,45.45
2023-05-09T18:27:54.594Z,45.82
2023-05-09T18:30:21.440Z,46.13
2023-05-09T18:32:48.303Z,45.73
2023-05-09T18:35:15.400Z,46.00
2023-05-09T18:37:42.941Z,45.85
2023-05-09T18:40:10.003Z,45.79
2023-05-09T18:42:36.932Z,46.48
2023-05-09T18:45:04.056Z,46.70
2023-05-09T18:47:30.901Z,46.59
2023-05-09T18:49:58.492Z,47.06
2023-05-09T18:52:26.613Z,46.89
2023-05-09T18:54:53.834Z,46.90
2023-05-09T18:57:21.115Z,46.88
2023-05-09T18:59:48.019Z,47.04
2023-05-09T19:02:14.781Z,47.10
2023-05-09T19:04:41.889Z,47.27
2023-05-09T19:07:11.642Z,47.32
2023-05-09T19:09:38.656Z,47.63
2023-05-09T19:12:06.065Z,47.74
2023-05-09T19:14:33.314Z,47.96
2023-05-09T19:17:04.296Z,48.05
2023-05-09T19:19:32.139Z,48.43
2023-05-09T19:22:01.768Z,48.24
2023-05-09T19:24:28.789Z,48.59
2023-05-09T19:26:55.523Z,48.65
2023-05-09T19:29:22.512Z,48.58
2023-05-09T19:32:01.900Z,48.74
2023-05-09T19:34:30.903Z,49.16
2023-05-09T19:36:58.476Z,49.13
2023-05-09T19:39:25.648Z,49.23
2023-05-09T19:41:52.947Z,49.60
2023-05-09T19:44:20.689Z,49.58
2023-05-09T19:46:49.623Z,49.78
2023-05-09T19:49:18.009Z,49.62
2023-05-09T19:51:45.690Z,50.08
2023-05-09T19:54:13.398Z,50.21
2023-05-09T19:56:40.934Z,50.20
2023-05-09T19:59:08.072Z,50.58
2023-05-09T20:01:35.037Z,50.64
2023-05-09T20:04:02.092Z,50.71
2023-05-09T20:09:13.782Z,51.28
2023-05-09T20:11:41.308Z,51.52
2023-05-09T20:14:08.807Z,51.51
2023-05-09T20:16:36.464Z,51.67
2023-05-09T20:19:04.199Z,51.68
2023-05-09T20:21:31.893Z,51.91
2023-05-09T20:23:59.865Z,51.98
2023-05-09T20:26:27.503Z,52.47
2023-05-09T20:28:55.126Z,52.41
2023-05-09T20:31:23.110Z,52.73
2023-05-09T20:33:50.922Z,53.08
2023-05-09T20:36:18.696Z,53.12
2023-05-09T20:38:46.082Z,53.28
2023-05-09T20:41:13.688Z,53.41
2023-05-09T20:43:41.444Z,53.72
2023-05-09T20:46:09.402Z,53.51
2023-05-09T20:48:36.971Z,53.80
2023-05-09T20:51:04.209Z,54.12
2023-05-09T20:53:31.043Z,53.93
2023-05-09T20:56:01.536Z,54.10
2023-05-09T20:58:31.247Z,54.08
2023-05-09T21:00:58.180Z,54.50
2023-05-09T21:03:25.121Z,54.43
2023-05-09T21:05:51.916Z,54.73
2023-05-09T21:08:18.648Z,54.74
2023-05-09T21:10:45.477Z,55.03
2023-05-09T21:13:12.204Z,55.19
2023-05-09T21:15:38.986Z,54.98
2023-05-09T21:18:05.870Z,55.15
2023-05-09T21:20:32.668Z,55.62
2023-05-09T21:22:59.483Z,55.87
2023-05-09T21:25:26.256Z,55.81
2023-05-09T21:27:52.967Z,55.37
2023-05-09T21:30:19.822Z,55.62
2023-05-09T21:32:46.612Z,55.57
2023-05-09T21:35:13.382Z,55.87
2023-05-09T21:37:40.083Z,56.14
2023-05-09T21:40:07.738Z,56.19
2023-05-09T21:42:34.493Z,56.34
2023-05-09T21:45:02.097Z,56.53
2023-05-09T21:47:29.052Z,56.82
2023-05-09T21:49:56.244Z,56.85
2023-05-09T21:52:22.977Z,57.06
2023-05-09T21:54:49.744Z,57.30
2023-05-09T21:57:16.362Z,57.58
2023-05-09T21:59:43.217Z,57.14
2023-05-09T22:02:10.018Z,57.47
2023-05-09T22:04:36.862Z,57.61
2023-05-09T22:07:03.609Z,57.54
2023-05-09T22:09:30.419Z,57.51
2023-05-09T22:11:57.144Z,57.81
2023-05-09T22:14:24.043Z,58.08
2023-05-09T22:16:50.757Z,57.95
2023-05-09T22:19:17.685Z,58.22
2023-05-09T22:21:44.402Z,58.12
2023-05-09T22:24:11.255Z,58.29
2023-05-09T22:26:37.881Z,58.72
2023-05-09T22:29:04.626Z,58.53
2023-05-09T22:31:31.514Z,58.33
2023-05-09T22:33:58.391Z,58.95
2023-05-09T22:36:25.143Z,58.55
2023-05-09T22:38:51.896Z,58.96
2023-05-09T22:41:19.384Z,58.88
2023-05-09T22:43:46.162Z,59.34
2023-05-09T22:46:13.010Z,58.83
2023-05-09T22:48:39.974Z,59.38
2023-05-09T22:51:06.803Z,59.22
2023-05-09T22:53:33.589Z,59.28
2023-05-09T22:56:00.431Z,59.59
2023-05-09T22:58:27.402Z,59.90
2023-05-09T23:00:54.165Z,60.17
2023-05-09T23:03:21.233Z,60.18
2023-05-09T23:05:48.366Z,60.19
2023-05-09T23:08:15.327Z,59.97
2023-05-09T23:10:42.213Z,59.67
2023-05-09T23:13:09.068Z,59.81
2023-05-09T23:15:36.187Z,59.71
2023-05-09T23:18:03.186Z,60.01
2023-05-09T23:20:29.962Z,59.97
2023-05-09T23:22:56.929Z,59.80
2023-05-09T23:25:23.832Z,59.89
2023-05-09T23:27:50.712Z,60.50
2023-05-09T23:30:17.780Z,60.35
2023-05-09T23:32:45.013Z,60.43
2023-05-09T23:35:12.138Z,60.25
2023-05-09T23:37:38.975Z,60.64
2023-05-09T23:40:06.446Z,60.52
2023-05-09T23:42:33.280Z,60.42
2023-05-09T23:45:00.227Z,60.39
2023-05-09T23:47:27.117Z,60.82
2023-05-09T23:49:54.033Z,60.95
2023-05-09T23:52:20.995Z,60.98
2023-05-09T23:54:48.420Z,60.53
2023-05-09T23:57:15.287Z,61.06
2023-05-09T23:59:42.182Z,60.60
